Hlavní strana
METAR-TAF:

METAR-TAF

Letiště :

Decatur, Illinois, Spojené státy americké

zeměpisná šířka: 39-50-04N, zeměpisná délka: 088-51-56W, výška: 208 m

Aktuální stav počasí

Zpráva byla vytvořena před 6 minutami, v 12:54 UTC
Západní vítr 4 kt
Teplota -2°C
Vlhkost vzduchu 86%
Tlak 1020 hPa
Viditelnost: 14.5 km
Zataženo ve výšce 700 ft

METAR: KDEC 281254Z 28004KT 9SM OVC007 M02/M04 A3012 RMK AO2 SLP207 T10171039

Čas: 07:00 (13:00 UTC)

Předpověď počasí

Zpráva byla vytvořena před 1 hodinou a 29 minutami, v 11:31 UTC
Předpověď platná od 28 v 12 UTC do 29 v 12 UTC
Severozápadní vítr 5 kt
Viditelnost: 10 km
Zataženo ve výšce 500 ft
Od 28 v 1600 UTC
Západoseverozápadní vítr 4 kt
Viditelnost: 10 km
Zataženo ve výšce 700 ft

TAF: KDEC 281131Z 2812/2912 31005KT P6SM OVC005 FM281600 30004KT P6SM OVC007

Stav a předpovědi počasí z více než 4 000 letišť (zprávy METAR a TAF).

Červené a žluté tečky na mapě představují dostupné meteorologické stanice.

Když kurzor umístíte na tečku, zobrazí se název stanice.

Pak kliknutím zobrazíte stav a předpověď počasí.

Chcete-li změnit mapu, kliknutím na zelené tlačítko se znaménkem +mapu přiblížíte, kliknutím na zelené tlačítko se znaménkem – mapu oddálíte a kliknutím na zelené šipky přejdete na sousední mapy.


METAR-TAF: